Rocklin, California
Current Conditions -  °F | °C
As of 11:15 PM on Saturday 22 Nov 2014 (Local Time) from KLHM Reporting Station
Broken Clouds Broken Clouds  
Wind Chill: 43°   Ceiling: 100
Heat Index: 43°   Visibility: 0.25mi
Dew Point: 43°   Wind: 3mph
Humidity: 100%   Direction: 360°N
Pressure: 30.25"   Gusts: NA
Location:  38.79°N, 121.23°W
Report Text: KLHM 230715Z AUTO 36003KT 1/4SM BKN001 06/06 A3025 RMK AO1
Loading
Personal Weather Stations






























Interactive Weather Map New forecast layout! Learn more

10-Day Weather Forecast

Advertisements
Track Severe Weather on mobile